createdAt,value
2022-07-27T00:01:21.077Z,18.80
2022-07-27T00:03:51.043Z,18.90
2022-07-27T00:06:18.153Z,18.80
2022-07-27T00:08:47.763Z,18.80
2022-07-27T00:11:16.364Z,18.80
2022-07-27T00:13:44.960Z,18.90
2022-07-27T00:16:14.670Z,18.90
2022-07-27T00:18:44.709Z,18.90
2022-07-27T00:21:12.749Z,19.00
2022-07-27T00:23:42.368Z,19.00
2022-07-27T00:26:10.953Z,19.00
2022-07-27T00:28:38.543Z,19.00
2022-07-27T00:31:07.176Z,19.00
2022-07-27T00:33:34.715Z,19.00
2022-07-27T00:36:05.033Z,19.00
2022-07-27T00:38:33.924Z,19.00
2022-07-27T00:41:01.523Z,18.90
2022-07-27T00:43:30.121Z,19.00
2022-07-27T00:45:58.706Z,19.00
2022-07-27T00:48:27.404Z,19.00
2022-07-27T00:50:56.907Z,19.00
2022-07-27T00:53:24.506Z,19.00
2022-07-27T00:55:55.102Z,18.90
2022-07-27T00:58:25.703Z,19.00
2022-07-27T01:00:53.300Z,18.90
2022-07-27T01:03:23.149Z,19.00
2022-07-27T01:05:51.489Z,18.90
2022-07-27T01:08:21.098Z,18.90
2022-07-27T01:10:50.725Z,18.80
2022-07-27T01:13:19.281Z,18.70
2022-07-27T01:15:46.971Z,18.70
2022-07-27T01:18:29.557Z,18.70
2022-07-27T01:20:59.146Z,18.80
2022-07-27T01:23:29.728Z,18.80
2022-07-27T01:25:57.392Z,18.80
2022-07-27T01:28:27.940Z,18.80
2022-07-27T01:30:57.561Z,18.80
2022-07-27T01:33:32.185Z,18.80
2022-07-27T01:36:01.745Z,18.80
2022-07-27T01:38:34.537Z,18.80
2022-07-27T01:41:04.660Z,18.80
2022-07-27T01:43:33.560Z,18.70
2022-07-27T01:46:07.108Z,18.60
2022-07-27T01:48:34.874Z,18.50
2022-07-27T01:51:02.364Z,18.50
2022-07-27T01:53:32.781Z,18.50
2022-07-27T01:56:00.584Z,18.50
2022-07-27T01:58:31.185Z,18.50
2022-07-27T02:00:59.800Z,18.50
2022-07-27T02:03:28.369Z,18.50
2022-07-27T02:05:57.976Z,18.40
2022-07-27T02:08:26.566Z,18.40
2022-07-27T02:11:17.249Z,18.40
2022-07-27T02:13:45.881Z,18.40
2022-07-27T02:16:17.387Z,18.30
2022-07-27T02:18:48.851Z,18.20
2022-07-27T02:21:17.677Z,18.10
2022-07-27T02:23:47.266Z,18.10
2022-07-27T02:26:14.847Z,18.10
2022-07-27T02:28:45.415Z,18.00
2022-07-27T02:31:14.113Z,18.00
2022-07-27T02:33:42.650Z,18.00
2022-07-27T02:36:13.350Z,18.00
2022-07-27T02:38:42.863Z,18.00
2022-07-27T02:41:11.501Z,18.00
2022-07-27T02:43:40.066Z,18.00
2022-07-27T02:46:07.738Z,18.00
2022-07-27T02:48:36.292Z,18.00
2022-07-27T02:51:04.826Z,18.00
2022-07-27T02:53:34.444Z,17.90
2022-07-27T02:56:03.028Z,17.90
2022-07-27T02:58:31.618Z,17.90
2022-07-27T03:00:59.202Z,18.00
2022-07-27T03:03:35.981Z,17.90
2022-07-27T03:06:09.453Z,18.00
2022-07-27T03:08:38.058Z,17.90
2022-07-27T03:11:08.673Z,17.90
2022-07-27T06:07:15.628Z,17.00
2022-07-27T06:09:43.089Z,17.00
2022-07-27T06:12:10.514Z,17.10
2022-07-27T06:14:51.008Z,17.10
2022-07-27T06:17:29.970Z,17.10
2022-07-27T06:20:04.298Z,17.10
2022-07-27T06:22:33.879Z,17.10
2022-07-27T06:25:01.457Z,17.10
2022-07-27T06:32:01.538Z,17.10
2022-07-27T06:34:23.712Z,17.10
2022-07-27T06:36:55.325Z,17.10
2022-07-27T06:39:24.944Z,17.10
2022-07-27T06:41:57.747Z,17.10
2022-07-27T06:44:27.138Z,17.10
2022-07-27T06:46:54.784Z,17.20
2022-07-27T06:49:22.366Z,17.10
2022-07-27T06:51:50.943Z,17.10
2022-07-27T06:54:19.535Z,17.10
2022-07-27T06:56:47.708Z,17.00
2022-07-27T06:59:16.004Z,16.90
2022-07-27T07:01:48.657Z,16.90
2022-07-27T07:04:16.993Z,16.90
2022-07-27T07:06:51.546Z,16.90
2022-07-27T07:09:21.021Z,16.90
2022-07-27T07:11:49.772Z,16.90
2022-07-27T07:14:18.360Z,16.90
2022-07-27T07:16:47.271Z,16.90
2022-07-27T07:19:17.549Z,16.80
2022-07-27T07:21:45.154Z,16.80
2022-07-27T07:24:15.744Z,16.80
2022-07-27T07:26:43.333Z,16.80
2022-07-27T07:29:11.139Z,16.90
2022-07-27T07:31:40.651Z,16.90
2022-07-27T07:34:09.132Z,16.90
2022-07-27T07:36:38.741Z,16.80
2022-07-27T07:39:07.365Z,16.90
2022-07-27T07:41:36.938Z,16.90
2022-07-27T07:44:06.592Z,16.90
2022-07-27T07:46:35.206Z,16.90
2022-07-27T07:49:03.247Z,16.90
2022-07-27T07:51:57.776Z,17.00
2022-07-27T07:54:28.098Z,17.10
2022-07-27T07:57:17.386Z,17.10
2022-07-27T08:00:36.514Z,17.20
2022-07-27T10:54:26.886Z,21.00
2022-07-27T12:01:52.299Z,20.90
2022-07-27T12:04:28.865Z,21.00
2022-07-27T12:07:15.811Z,21.10
2022-07-27T12:09:50.140Z,21.00
2022-07-27T12:12:34.743Z,21.00
2022-07-27T12:18:09.141Z,21.40
2022-07-27T12:20:57.856Z,21.70
2022-07-27T12:23:33.890Z,21.90
2022-07-27T12:29:12.211Z,21.90
2022-07-27T12:31:50.424Z,21.70
2022-07-27T12:34:18.618Z,21.60
2022-07-27T12:36:47.609Z,21.60
2022-07-27T12:39:30.259Z,21.70
2022-07-27T12:42:08.908Z,21.50
2022-07-27T12:44:39.492Z,21.40
2022-07-27T12:47:32.205Z,21.20
2022-07-27T12:50:31.914Z,21.10
2022-07-27T12:53:01.523Z,21.20
2022-07-27T12:55:29.093Z,21.20
2022-07-27T12:57:57.215Z,21.10
2022-07-27T13:00:32.851Z,21.10
2022-07-27T13:03:03.037Z,21.20
2022-07-27T13:05:32.567Z,21.30
2022-07-27T15:15:08.774Z,22.00
2022-07-27T15:21:43.933Z,22.00
2022-07-27T15:31:21.683Z,21.80
2022-07-27T15:33:50.709Z,21.80
2022-07-27T15:36:32.394Z,21.90
2022-07-27T15:39:04.407Z,21.90
2022-07-27T15:42:13.626Z,21.90
2022-07-27T15:45:50.546Z,22.00
2022-07-27T15:52:09.274Z,22.10
2022-07-27T15:55:02.882Z,22.10
2022-07-27T19:16:22.741Z,19.10
2022-07-27T19:18:54.221Z,18.90
2022-07-27T19:21:26.785Z,18.80
2022-07-27T19:23:55.365Z,18.80
2022-07-27T19:26:24.147Z,18.60
2022-07-27T19:28:54.498Z,18.50
2022-07-27T19:31:26.246Z,18.40
2022-07-27T19:33:57.934Z,18.30
2022-07-27T19:36:27.986Z,18.20
2022-07-27T19:39:03.029Z,18.10
2022-07-27T19:41:35.644Z,17.90
2022-07-27T19:44:05.222Z,17.80
2022-07-27T19:46:35.886Z,17.70
2022-07-27T19:49:04.514Z,17.60
2022-07-27T19:51:34.365Z,17.50
2022-07-27T19:54:03.649Z,17.40
2022-07-27T19:56:37.197Z,17.30
2022-07-27T19:59:05.823Z,17.20
2022-07-27T20:01:34.499Z,17.10
2022-07-27T20:04:07.069Z,17.00
2022-07-27T20:06:36.632Z,16.90
2022-07-27T20:09:07.245Z,16.80
2022-07-27T20:11:34.824Z,16.70
2022-07-27T20:14:03.424Z,16.70
2022-07-27T20:16:33.067Z,16.60
2022-07-27T20:19:01.611Z,16.50
2022-07-27T20:21:31.213Z,16.40
2022-07-27T20:24:02.878Z,16.30
2022-07-27T20:26:34.982Z,16.20
2022-07-27T20:29:04.060Z,16.10
2022-07-27T20:31:32.628Z,16.00
2022-07-27T20:34:02.621Z,15.90
2022-07-27T20:36:30.841Z,15.80
2022-07-27T20:39:03.301Z,15.80
2022-07-27T20:41:35.066Z,15.70
2022-07-27T20:44:03.676Z,15.60
2022-07-27T20:46:31.297Z,15.60
2022-07-27T20:49:03.916Z,15.60
2022-07-27T20:51:32.476Z,15.50
2022-07-27T20:54:01.052Z,15.40
2022-07-27T20:56:29.663Z,15.30
2022-07-27T20:59:01.294Z,15.30
2022-07-27T21:01:29.929Z,15.20
2022-07-27T21:03:57.464Z,15.10
2022-07-27T21:06:27.054Z,15.00
2022-07-27T21:08:55.668Z,14.90
2022-07-27T21:11:23.243Z,14.90
2022-07-27T21:13:52.851Z,14.80
2022-07-27T21:16:20.521Z,14.80
2022-07-27T21:18:49.047Z,14.70
2022-07-27T21:21:19.499Z,14.60
2022-07-27T21:24:09.330Z,14.60
2022-07-27T21:26:37.111Z,14.50
2022-07-27T21:29:06.537Z,14.40
2022-07-27T21:31:38.127Z,14.40
2022-07-27T21:34:09.979Z,14.30
2022-07-27T21:36:38.325Z,14.30
2022-07-27T21:39:05.966Z,14.30
2022-07-27T21:41:33.534Z,14.20
2022-07-27T21:44:01.117Z,14.20
2022-07-27T21:46:29.750Z,14.10
2022-07-27T21:48:58.359Z,14.00
2022-07-27T21:51:27.897Z,14.00
2022-07-27T21:53:55.492Z,14.00
2022-07-27T21:56:23.081Z,13.90
2022-07-27T21:58:51.684Z,13.90
2022-07-27T22:01:20.309Z,13.80
2022-07-27T22:03:47.911Z,13.70
2022-07-27T22:06:15.458Z,13.70
2022-07-27T22:08:43.047Z,13.60
2022-07-27T22:11:11.641Z,13.60
2022-07-27T22:13:40.248Z,13.50
2022-07-27T22:16:10.909Z,13.40
2022-07-27T22:18:38.438Z,13.40
2022-07-27T22:21:07.019Z,13.40
2022-07-27T22:23:36.573Z,13.30
2022-07-27T22:26:05.230Z,13.30
2022-07-27T22:28:32.939Z,13.20
2022-07-27T22:31:21.780Z,13.20
2022-07-27T22:33:50.215Z,13.10
2022-07-27T22:36:17.678Z,13.10
2022-07-27T22:38:45.295Z,13.10
2022-07-27T22:41:12.879Z,13.10
2022-07-27T22:43:40.438Z,13.00
2022-07-27T22:46:08.111Z,13.00
2022-07-27T22:48:36.713Z,12.90
2022-07-27T22:51:05.255Z,12.90
2022-07-27T22:53:34.841Z,12.80
2022-07-27T22:56:03.431Z,12.80
2022-07-27T22:58:31.028Z,12.70
2022-07-27T23:01:01.790Z,12.70
2022-07-27T23:03:31.237Z,12.60
2022-07-27T23:05:59.832Z,12.60
2022-07-27T23:08:28.424Z,12.60
2022-07-27T23:10:55.997Z,12.60
2022-07-27T23:13:24.595Z,12.50
2022-07-27T23:15:54.209Z,12.50
2022-07-27T23:18:23.792Z,12.50
2022-07-27T23:20:51.380Z,12.50
2022-07-27T23:23:20.018Z,12.50
2022-07-27T23:25:51.026Z,12.40
2022-07-27T23:28:18.654Z,12.40
2022-07-27T23:30:47.792Z,12.40
2022-07-27T23:33:15.379Z,12.40
2022-07-27T23:35:43.981Z,12.40
2022-07-27T23:38:13.580Z,12.40
2022-07-27T23:40:42.178Z,12.40
2022-07-27T23:43:09.760Z,12.40
2022-07-27T23:45:38.357Z,12.40
2022-07-27T23:48:06.940Z,12.40
2022-07-27T23:50:34.551Z,12.30
2022-07-27T23:53:03.142Z,12.30
2022-07-27T23:55:30.741Z,12.30
2022-07-27T23:57:58.320Z,12.20
